sensor_id;sensor_type;location;lat;lon;timestamp;pressure;altitude;pressure_sealevel;temperature
42119;BMP280;27783;42.782;23.274;2023-04-25T00:01:13;94730.09;;;11.47
42119;BMP280;27783;42.782;23.274;2023-04-25T00:03:39;94727.47;;;11.47
42119;BMP280;27783;42.782;23.274;2023-04-25T00:06:06;94732.25;;;11.32
42119;BMP280;27783;42.782;23.274;2023-04-25T00:08:32;94725.56;;;11.47
42119;BMP280;27783;42.782;23.274;2023-04-25T00:10:59;94737.81;;;11.38
42119;BMP280;27783;42.782;23.274;2023-04-25T00:13:25;94730.72;;;11.35
42119;BMP280;27783;42.782;23.274;2023-04-25T00:15:52;94721.97;;;11.38
42119;BMP280;27783;42.782;23.274;2023-04-25T00:18:19;94721.44;;;11.24
42119;BMP280;27783;42.782;23.274;2023-04-25T00:20:47;94724.31;;;11.32
42119;BMP280;27783;42.782;23.274;2023-04-25T00:23:14;94738.31;;;11.52
42119;BMP280;27783;42.782;23.274;2023-04-25T00:25:50;94746.81;;;11.59
42119;BMP280;27783;42.782;23.274;2023-04-25T00:28:17;94745.13;;;11.49
42119;BMP280;27783;42.782;23.274;2023-04-25T00:30:46;94737.69;;;11.45
42119;BMP280;27783;42.782;23.274;2023-04-25T00:33:13;94740.66;;;11.66
42119;BMP280;27783;42.782;23.274;2023-04-25T00:35:41;94732.13;;;11.39
42119;BMP280;27783;42.782;23.274;2023-04-25T00:38:07;94731.84;;;11.34
42119;BMP280;27783;42.782;23.274;2023-04-25T00:40:32;94723.34;;;11.23
42119;BMP280;27783;42.782;23.274;2023-04-25T00:42:59;94722.31;;;11.17
42119;BMP280;27783;42.782;23.274;2023-04-25T00:45:28;94736.84;;;11.29
42119;BMP280;27783;42.782;23.274;2023-04-25T00:48:09;94730.19;;;11.21
42119;BMP280;27783;42.782;23.274;2023-04-25T00:50:39;94712.69;;;11.08
42119;BMP280;27783;42.782;23.274;2023-04-25T00:53:06;94700.44;;;10.98
42119;BMP280;27783;42.782;23.274;2023-04-25T00:55:35;94710.06;;;11.08
42119;BMP280;27783;42.782;23.274;2023-04-25T00:58:01;94715.00;;;11.28
42119;BMP280;27783;42.782;23.274;2023-04-25T01:00:27;94714.94;;;11.32
42119;BMP280;27783;42.782;23.274;2023-04-25T01:02:54;94710.75;;;11.12
42119;BMP280;27783;42.782;23.274;2023-04-25T01:05:23;94713.78;;;11.10
42119;BMP280;27783;42.782;23.274;2023-04-25T01:07:49;94707.56;;;11.20
42119;BMP280;27783;42.782;23.274;2023-04-25T01:10:15;94710.75;;;11.12
42119;BMP280;27783;42.782;23.274;2023-04-25T01:12:46;94707.09;;;11.06
42119;BMP280;27783;42.782;23.274;2023-04-25T01:15:12;94695.81;;;11.05
42119;BMP280;27783;42.782;23.274;2023-04-25T01:17:38;94696.31;;;10.97
42119;BMP280;27783;42.782;23.274;2023-04-25T01:20:05;94693.75;;;10.94
42119;BMP280;27783;42.782;23.274;2023-04-25T01:22:32;94687.13;;;10.86
42119;BMP280;27783;42.782;23.274;2023-04-25T01:25:03;94687.13;;;10.86
42119;BMP280;27783;42.782;23.274;2023-04-25T01:27:37;94678.34;;;10.92
42119;BMP280;27783;42.782;23.274;2023-04-25T01:30:03;94680.50;;;10.97
42119;BMP280;27783;42.782;23.274;2023-04-25T01:32:30;94687.16;;;11.05
42119;BMP280;27783;42.782;23.274;2023-04-25T01:35:17;94693.56;;;11.04
42119;BMP280;27783;42.782;23.274;2023-04-25T01:37:43;94688.97;;;11.08
42119;BMP280;27783;42.782;23.274;2023-04-25T01:40:28;94696.44;;;11.13
42119;BMP280;27783;42.782;23.274;2023-04-25T01:43:02;94690.13;;;11.07
42119;BMP280;27783;42.782;23.274;2023-04-25T01:45:31;94685.88;;;11.13
42119;BMP280;27783;42.782;23.274;2023-04-25T01:48:05;94682.22;;;11.07
42119;BMP280;27783;42.782;23.274;2023-04-25T01:50:36;94675.59;;;10.99
42119;BMP280;27783;42.782;23.274;2023-04-25T01:53:03;94673.91;;;11.08
42119;BMP280;27783;42.782;23.274;2023-04-25T01:55:31;94673.81;;;10.93
42119;BMP280;27783;42.782;23.274;2023-04-25T01:57:57;94683.25;;;10.90
42119;BMP280;27783;42.782;23.274;2023-04-25T02:00:26;94682.13;;;10.91
42119;BMP280;27783;42.782;23.274;2023-04-25T02:02:57;94684.97;;;11.00
42119;BMP280;27783;42.782;23.274;2023-04-25T02:05:22;94685.38;;;10.99
42119;BMP280;27783;42.782;23.274;2023-04-25T02:07:50;94691.28;;;11.06
42119;BMP280;27783;42.782;23.274;2023-04-25T02:10:16;94689.03;;;11.04
42119;BMP280;27783;42.782;23.274;2023-04-25T02:12:44;94684.44;;;11.08
42119;BMP280;27783;42.782;23.274;2023-04-25T02:15:11;94682.94;;;11.07
42119;BMP280;27783;42.782;23.274;2023-04-25T02:17:37;94677.41;;;11.02
42119;BMP280;27783;42.782;23.274;2023-04-25T02:20:05;94674.84;;;10.99
42119;BMP280;27783;42.782;23.274;2023-04-25T02:22:30;94664.13;;;10.86
42119;BMP280;27783;42.782;23.274;2023-04-25T02:24:56;94669.28;;;10.49
42119;BMP280;27783;42.782;23.274;2023-04-25T02:27:23;94655.41;;;10.67
42119;BMP280;27783;42.782;23.274;2023-04-25T02:29:49;94651.97;;;10.70
42119;BMP280;27783;42.782;23.274;2023-04-25T02:32:15;94655.16;;;10.62
42119;BMP280;27783;42.782;23.274;2023-04-25T02:34:42;94653.09;;;10.72
42119;BMP280;27783;42.782;23.274;2023-04-25T02:37:09;94644.34;;;10.56
42119;BMP280;27783;42.782;23.274;2023-04-25T02:39:36;94649.28;;;10.73
42119;BMP280;27783;42.782;23.274;2023-04-25T02:42:03;94654.06;;;10.37
42119;BMP280;27783;42.782;23.274;2023-04-25T02:44:32;94639.38;;;10.14
42119;BMP280;27783;42.782;23.274;2023-04-25T02:46:58;94635.25;;;10.13
42119;BMP280;27783;42.782;23.274;2023-04-25T02:49:24;94638.13;;;10.21
42119;BMP280;27783;42.782;23.274;2023-04-25T02:52:00;94637.38;;;10.21
42119;BMP280;27783;42.782;23.274;2023-04-25T02:54:26;94639.66;;;10.19
42119;BMP280;27783;42.782;23.274;2023-04-25T02:56:53;94644.06;;;10.03
42119;BMP280;27783;42.782;23.274;2023-04-25T02:59:19;94636.53;;;10.01
42119;BMP280;27783;42.782;23.274;2023-04-25T03:01:45;94646.28;;;9.79
42119;BMP280;27783;42.782;23.274;2023-04-25T03:04:13;94631.03;;;9.93
42119;BMP280;27783;42.782;23.274;2023-04-25T03:06:54;94646.22;;;9.82
42119;BMP280;27783;42.782;23.274;2023-04-25T03:09:21;94642.28;;;9.67
42119;BMP280;27783;42.782;23.274;2023-04-25T03:11:49;94639.63;;;9.71
42119;BMP280;27783;42.782;23.274;2023-04-25T03:14:15;94646.69;;;9.77
42119;BMP280;27783;42.782;23.274;2023-04-25T03:16:40;94631.66;;;9.78
42119;BMP280;27783;42.782;23.274;2023-04-25T03:19:06;94632.75;;;9.80
42119;BMP280;27783;42.782;23.274;2023-04-25T03:21:34;94634.88;;;9.88
42119;BMP280;27783;42.782;23.274;2023-04-25T03:24:16;94631.19;;;9.82
42119;BMP280;27783;42.782;23.274;2023-04-25T03:26:43;94631.44;;;9.91
42119;BMP280;27783;42.782;23.274;2023-04-25T03:29:30;94624.06;;;9.83
42119;BMP280;27783;42.782;23.274;2023-04-25T03:31:56;94630.44;;;9.82
42119;BMP280;27783;42.782;23.274;2023-04-25T03:34:28;94627.44;;;9.54
42119;BMP280;27783;42.782;23.274;2023-04-25T03:37:15;94624.38;;;9.56
42119;BMP280;27783;42.782;23.274;2023-04-25T03:39:41;94637.44;;;9.63
42119;BMP280;27783;42.782;23.274;2023-04-25T03:42:06;94626.03;;;9.76
42119;BMP280;27783;42.782;23.274;2023-04-25T03:44:32;94630.06;;;9.83
42119;BMP280;27783;42.782;23.274;2023-04-25T03:46:58;94631.00;;;9.67
42119;BMP280;27783;42.782;23.274;2023-04-25T03:49:28;94633.13;;;9.79
42119;BMP280;27783;42.782;23.274;2023-04-25T03:51:53;94638.81;;;9.74
42119;BMP280;27783;42.782;23.274;2023-04-25T03:54:21;94646.75;;;9.70
42119;BMP280;27783;42.782;23.274;2023-04-25T03:57:02;94646.31;;;9.17
42119;BMP280;27783;42.782;23.274;2023-04-25T03:59:29;94653.44;;;9.16
42119;BMP280;27783;42.782;23.274;2023-04-25T04:01:54;94640.88;;;9.31
42119;BMP280;27783;42.782;23.274;2023-04-25T04:04:20;94647.59;;;9.64
42119;BMP280;27783;42.782;23.274;2023-04-25T04:06:47;94646.72;;;9.74
42119;BMP280;27783;42.782;23.274;2023-04-25T04:09:12;94644.81;;;9.78
42119;BMP280;27783;42.782;23.274;2023-04-25T04:11:53;94629.34;;;9.80
42119;BMP280;27783;42.782;23.274;2023-04-25T04:14:19;94632.41;;;10.04
42119;BMP280;27783;42.782;23.274;2023-04-25T04:16:50;94638.00;;;10.28
42119;BMP280;27783;42.782;23.274;2023-04-25T04:19:17;94633.59;;;10.44
42119;BMP280;27783;42.782;23.274;2023-04-25T04:21:57;94635.03;;;10.49
42119;BMP280;27783;42.782;23.274;2023-04-25T04:24:28;94630.13;;;10.73
42119;BMP280;27783;42.782;23.274;2023-04-25T04:26:53;94630.75;;;10.99
42119;BMP280;27783;42.782;23.274;2023-04-25T04:29:20;94636.25;;;10.66
42119;BMP280;27783;42.782;23.274;2023-04-25T04:31:50;94638.47;;;10.68
42119;BMP280;27783;42.782;23.274;2023-04-25T04:34:20;94641.13;;;10.87
42119;BMP280;27783;42.782;23.274;2023-04-25T04:37:13;94643.25;;;10.95
42119;BMP280;27783;42.782;23.274;2023-04-25T04:39:40;94642.47;;;11.36
42119;BMP280;27783;42.782;23.274;2023-04-25T04:42:07;94648.97;;;11.50
42119;BMP280;27783;42.782;23.274;2023-04-25T04:44:35;94648.19;;;10.93
42119;BMP280;27783;42.782;23.274;2023-04-25T04:47:03;94653.06;;;11.14
42119;BMP280;27783;42.782;23.274;2023-04-25T04:49:32;94654.09;;;11.19
42119;BMP280;27783;42.782;23.274;2023-04-25T04:51:59;94653.25;;;11.26
42119;BMP280;27783;42.782;23.274;2023-04-25T04:54:26;94651.94;;;11.15
42119;BMP280;27783;42.782;23.274;2023-04-25T04:56:56;94653.84;;;11.33
42119;BMP280;27783;42.782;23.274;2023-04-25T04:59:22;94656.03;;;11.38
42119;BMP280;27783;42.782;23.274;2023-04-25T05:01:49;94662.38;;;11.59
42119;BMP280;27783;42.782;23.274;2023-04-25T05:04:16;94662.44;;;11.75
42119;BMP280;27783;42.782;23.274;2023-04-25T05:06:48;94659.91;;;11.87
42119;BMP280;27783;42.782;23.274;2023-04-25T05:09:13;94660.97;;;11.89
42119;BMP280;27783;42.782;23.274;2023-04-25T05:11:41;94663.97;;;11.91
42119;BMP280;27783;42.782;23.274;2023-04-25T05:14:06;94672.72;;;12.04
42119;BMP280;27783;42.782;23.274;2023-04-25T05:16:33;94672.22;;;11.93
42119;BMP280;27783;42.782;23.274;2023-04-25T05:19:02;94665.84;;;11.91
42119;BMP280;27783;42.782;23.274;2023-04-25T05:21:28;94673.41;;;12.08
42119;BMP280;27783;42.782;23.274;2023-04-25T05:23:56;94665.81;;;12.10
42119;BMP280;27783;42.782;23.274;2023-04-25T05:26:23;94659.97;;;12.18
42119;BMP280;27783;42.782;23.274;2023-04-25T05:28:49;94661.56;;;12.31
42119;BMP280;27783;42.782;23.274;2023-04-25T05:31:17;94658.91;;;12.31
42119;BMP280;27783;42.782;23.274;2023-04-25T05:33:45;94659.06;;;12.40
42119;BMP280;27783;42.782;23.274;2023-04-25T05:36:11;94655.00;;;12.51
42119;BMP280;27783;42.782;23.274;2023-04-25T05:38:37;94648.00;;;12.45
42119;BMP280;27783;42.782;23.274;2023-04-25T05:41:02;94658.41;;;12.51
42119;BMP280;27783;42.782;23.274;2023-04-25T05:43:27;94642.97;;;12.50
42119;BMP280;27783;42.782;23.274;2023-04-25T05:45:54;94649.84;;;12.63
42119;BMP280;27783;42.782;23.274;2023-04-25T05:48:27;94645.41;;;12.60
42119;BMP280;27783;42.782;23.274;2023-04-25T05:50:54;94650.09;;;12.68
42119;BMP280;27783;42.782;23.274;2023-04-25T05:53:20;94655.38;;;12.68
42119;BMP280;27783;42.782;23.274;2023-04-25T05:55:46;94650.56;;;12.79
42119;BMP280;27783;42.782;23.274;2023-04-25T05:58:12;94655.84;;;12.95
42119;BMP280;27783;42.782;23.274;2023-04-25T06:00:52;94660.56;;;12.87
42119;BMP280;27783;42.782;23.274;2023-04-25T06:03:21;94653.63;;;12.93
42119;BMP280;27783;42.782;23.274;2023-04-25T06:05:47;94662.19;;;12.97
42119;BMP280;27783;42.782;23.274;2023-04-25T06:08:15;94656.00;;;13.03
42119;BMP280;27783;42.782;23.274;2023-04-25T06:10:41;94647.28;;;13.18
42119;BMP280;27783;42.782;23.274;2023-04-25T06:13:07;94646.06;;;13.07
42119;BMP280;27783;42.782;23.274;2023-04-25T06:15:36;94646.63;;;13.15
42119;BMP280;27783;42.782;23.274;2023-04-25T06:18:02;94660.53;;;13.31
42119;BMP280;27783;42.782;23.274;2023-04-25T06:20:28;94651.81;;;13.18
42119;BMP280;27783;42.782;23.274;2023-04-25T06:22:54;94652.75;;;13.12
42119;BMP280;27783;42.782;23.274;2023-04-25T06:25:34;94661.00;;;13.14
42119;BMP280;27783;42.782;23.274;2023-04-25T06:28:00;94654.72;;;13.23
42119;BMP280;27783;42.782;23.274;2023-04-25T06:30:26;94653.25;;;13.74
42119;BMP280;27783;42.782;23.274;2023-04-25T06:32:53;94655.88;;;14.14
42119;BMP280;27783;42.782;23.274;2023-04-25T06:35:20;94656.84;;;14.20
42119;BMP280;27783;42.782;23.274;2023-04-25T06:37:45;94650.59;;;14.38
42119;BMP280;27783;42.782;23.274;2023-04-25T06:40:11;94656.31;;;14.37
42119;BMP280;27783;42.782;23.274;2023-04-25T06:42:38;94649.84;;;14.38
42119;BMP280;27783;42.782;23.274;2023-04-25T06:45:03;94656.00;;;14.47
42119;BMP280;27783;42.782;23.274;2023-04-25T06:47:29;94653.22;;;14.50
42119;BMP280;27783;42.782;23.274;2023-04-25T06:49:56;94662.56;;;14.43
42119;BMP280;27783;42.782;23.274;2023-04-25T06:52:21;94660.84;;;14.49
42119;BMP280;27783;42.782;23.274;2023-04-25T06:54:48;94658.22;;;14.24
42119;BMP280;27783;42.782;23.274;2023-04-25T06:57:14;94655.59;;;14.82
42119;BMP280;27783;42.782;23.274;2023-04-25T06:59:42;94657.75;;;14.86
42119;BMP280;27783;42.782;23.274;2023-04-25T07:02:13;94665.44;;;14.36
42119;BMP280;27783;42.782;23.274;2023-04-25T07:04:39;94668.47;;;14.83
42119;BMP280;27783;42.782;23.274;2023-04-25T07:07:06;94663.09;;;14.50
42119;BMP280;27783;42.782;23.274;2023-04-25T07:09:32;94671.91;;;14.35
42119;BMP280;27783;42.782;23.274;2023-04-25T07:12:06;94672.94;;;14.50
42119;BMP280;27783;42.782;23.274;2023-04-25T07:14:32;94665.50;;;14.93
42119;BMP280;27783;42.782;23.274;2023-04-25T07:16:57;94659.56;;;15.22
42119;BMP280;27783;42.782;23.274;2023-04-25T07:19:24;94663.38;;;14.88
42119;BMP280;27783;42.782;23.274;2023-04-25T07:21:54;94653.66;;;15.39
42119;BMP280;27783;42.782;23.274;2023-04-25T07:24:22;94661.13;;;15.32
42119;BMP280;27783;42.782;23.274;2023-04-25T07:26:48;94657.31;;;14.76
42119;BMP280;27783;42.782;23.274;2023-04-25T07:29:15;94652.53;;;14.95
42119;BMP280;27783;42.782;23.274;2023-04-25T07:31:42;94647.19;;;15.40
42119;BMP280;27783;42.782;23.274;2023-04-25T07:34:07;94656.34;;;15.60
42119;BMP280;27783;42.782;23.274;2023-04-25T07:36:35;94642.72;;;16.00
42119;BMP280;27783;42.782;23.274;2023-04-25T07:39:02;94655.75;;;14.90
42119;BMP280;27783;42.782;23.274;2023-04-25T07:41:27;94648.28;;;14.85
42119;BMP280;27783;42.782;23.274;2023-04-25T07:44:08;94645.56;;;14.77
42119;BMP280;27783;42.782;23.274;2023-04-25T07:46:34;94648.88;;;15.14
42119;BMP280;27783;42.782;23.274;2023-04-25T07:49:07;94645.88;;;14.91
42119;BMP280;27783;42.782;23.274;2023-04-25T07:51:35;94641.38;;;15.33
42119;BMP280;27783;42.782;23.274;2023-04-25T07:54:02;94646.97;;;16.27
42119;BMP280;27783;42.782;23.274;2023-04-25T07:56:36;94647.31;;;16.76
42119;BMP280;27783;42.782;23.274;2023-04-25T07:59:02;94641.31;;;16.17
42119;BMP280;27783;42.782;23.274;2023-04-25T08:01:28;94640.19;;;15.76
42119;BMP280;27783;42.782;23.274;2023-04-25T08:03:54;94639.78;;;16.36
42119;BMP280;27783;42.782;23.274;2023-04-25T08:06:21;94626.09;;;17.29
42119;BMP280;27783;42.782;23.274;2023-04-25T08:08:47;94625.91;;;17.93
42119;BMP280;27783;42.782;23.274;2023-04-25T08:11:14;94635.25;;;16.46
42119;BMP280;27783;42.782;23.274;2023-04-25T08:13:44;94646.09;;;16.30
42119;BMP280;27783;42.782;23.274;2023-04-25T08:16:11;94634.88;;;16.65
42119;BMP280;27783;42.782;23.274;2023-04-25T08:18:37;94638.88;;;16.78
42119;BMP280;27783;42.782;23.274;2023-04-25T08:21:04;94625.97;;;16.59
42119;BMP280;27783;42.782;23.274;2023-04-25T08:23:30;94628.63;;;16.20
42119;BMP280;27783;42.782;23.274;2023-04-25T08:25:57;94616.34;;;17.08
42119;BMP280;27783;42.782;23.274;2023-04-25T08:28:24;94626.31;;;16.22
42119;BMP280;27783;42.782;23.274;2023-04-25T08:30:51;94630.50;;;16.50
42119;BMP280;27783;42.782;23.274;2023-04-25T08:33:17;94630.25;;;16.56
42119;BMP280;27783;42.782;23.274;2023-04-25T08:35:44;94632.06;;;16.77
42119;BMP280;27783;42.782;23.274;2023-04-25T08:38:10;94621.50;;;17.47
42119;BMP280;27783;42.782;23.274;2023-04-25T08:40:38;94627.06;;;16.79
42119;BMP280;27783;42.782;23.274;2023-04-25T08:43:08;94634.25;;;16.61
42119;BMP280;27783;42.782;23.274;2023-04-25T08:45:42;94627.09;;;17.75
42119;BMP280;27783;42.782;23.274;2023-04-25T08:48:28;94634.38;;;17.83
42119;BMP280;27783;42.782;23.274;2023-04-25T08:50:55;94626.53;;;17.62
42119;BMP280;27783;42.782;23.274;2023-04-25T08:53:26;94620.13;;;17.95
42119;BMP280;27783;42.782;23.274;2023-04-25T08:56:16;94624.72;;;17.94
42119;BMP280;27783;42.782;23.274;2023-04-25T08:58:49;94629.47;;;17.73
42119;BMP280;27783;42.782;23.274;2023-04-25T09:01:19;94622.69;;;17.37
42119;BMP280;27783;42.782;23.274;2023-04-25T09:03:47;94616.31;;;17.87
42119;BMP280;27783;42.782;23.274;2023-04-25T09:06:14;94613.47;;;18.31
42119;BMP280;27783;42.782;23.274;2023-04-25T09:08:41;94610.56;;;17.45
42119;BMP280;27783;42.782;23.274;2023-04-25T09:11:09;94598.09;;;17.77
42119;BMP280;27783;42.782;23.274;2023-04-25T09:13:34;94600.38;;;18.10
42119;BMP280;27783;42.782;23.274;2023-04-25T09:16:04;94602.25;;;17.51
42119;BMP280;27783;42.782;23.274;2023-04-25T09:18:31;94601.53;;;17.16
42119;BMP280;27783;42.782;23.274;2023-04-25T09:21:10;94600.13;;;17.99
42119;BMP280;27783;42.782;23.274;2023-04-25T09:23:47;94602.56;;;17.10
42119;BMP280;27783;42.782;23.274;2023-04-25T09:26:18;94603.13;;;16.32
42119;BMP280;27783;42.782;23.274;2023-04-25T09:28:44;94598.06;;;15.66
42119;BMP280;27783;42.782;23.274;2023-04-25T09:31:20;94581.38;;;15.65
42119;BMP280;27783;42.782;23.274;2023-04-25T09:34:04;94587.06;;;15.97
42119;BMP280;27783;42.782;23.274;2023-04-25T09:36:43;94582.00;;;16.37
42119;BMP280;27783;42.782;23.274;2023-04-25T09:39:13;94582.81;;;16.72
42119;BMP280;27783;42.782;23.274;2023-04-25T09:41:53;94583.81;;;18.06
42119;BMP280;27783;42.782;23.274;2023-04-25T09:44:23;94574.63;;;18.70
42119;BMP280;27783;42.782;23.274;2023-04-25T09:46:50;94581.53;;;17.64
42119;BMP280;27783;42.782;23.274;2023-04-25T09:49:24;94578.06;;;17.99
42119;BMP280;27783;42.782;23.274;2023-04-25T09:51:58;94567.47;;;19.36
42119;BMP280;27783;42.782;23.274;2023-04-25T09:54:25;94568.66;;;18.75
42119;BMP280;27783;42.782;23.274;2023-04-25T09:56:52;94570.94;;;18.90
42119;BMP280;27783;42.782;23.274;2023-04-25T09:59:24;94577.31;;;18.61
42119;BMP280;27783;42.782;23.274;2023-04-25T10:01:50;94568.09;;;18.94
42119;BMP280;27783;42.782;23.274;2023-04-25T10:04:20;94570.44;;;18.15
42119;BMP280;27783;42.782;23.274;2023-04-25T10:06:50;94565.94;;;17.89
42119;BMP280;27783;42.782;23.274;2023-04-25T10:09:20;94563.47;;;18.49
42119;BMP280;27783;42.782;23.274;2023-04-25T10:11:47;94551.97;;;19.39
42119;BMP280;27783;42.782;23.274;2023-04-25T10:14:16;94561.13;;;20.18
42119;BMP280;27783;42.782;23.274;2023-04-25T10:16:50;94584.50;;;19.01
42119;BMP280;27783;42.782;23.274;2023-04-25T10:19:34;94614.19;;;16.86
42119;BMP280;27783;42.782;23.274;2023-04-25T10:24:46;94626.06;;;15.37
42119;BMP280;27783;42.782;23.274;2023-04-25T10:27:12;94612.13;;;14.79
42119;BMP280;27783;42.782;23.274;2023-04-25T10:29:37;94614.63;;;14.50
42119;BMP280;27783;42.782;23.274;2023-04-25T10:32:03;94610.19;;;14.10
42119;BMP280;27783;42.782;23.274;2023-04-25T10:34:43;94611.56;;;14.27
42119;BMP280;27783;42.782;23.274;2023-04-25T10:37:12;94616.66;;;13.97
42119;BMP280;27783;42.782;23.274;2023-04-25T10:39:39;94610.63;;;13.84
42119;BMP280;27783;42.782;23.274;2023-04-25T10:42:05;94613.84;;;13.76
42119;BMP280;27783;42.782;23.274;2023-04-25T10:44:32;94610.59;;;13.72
42119;BMP280;27783;42.782;23.274;2023-04-25T10:47:01;94597.25;;;14.94
42119;BMP280;27783;42.782;23.274;2023-04-25T10:49:36;94590.50;;;15.85
42119;BMP280;27783;42.782;23.274;2023-04-25T10:54:52;94581.38;;;16.24
42119;BMP280;27783;42.782;23.274;2023-04-25T11:00:08;94578.94;;;17.12
42119;BMP280;27783;42.782;23.274;2023-04-25T11:02:38;94573.28;;;16.92
42119;BMP280;27783;42.782;23.274;2023-04-25T11:05:05;94574.47;;;17.09
42119;BMP280;27783;42.782;23.274;2023-04-25T11:07:37;94559.63;;;17.51
42119;BMP280;27783;42.782;23.274;2023-04-25T11:10:03;94555.94;;;18.38
42119;BMP280;27783;42.782;23.274;2023-04-25T11:12:31;94562.22;;;18.58
42119;BMP280;27783;42.782;23.274;2023-04-25T11:15:01;94558.16;;;18.71
42119;BMP280;27783;42.782;23.274;2023-04-25T11:17:26;94546.81;;;19.22
42119;BMP280;27783;42.782;23.274;2023-04-25T11:19:51;94542.50;;;18.56
42119;BMP280;27783;42.782;23.274;2023-04-25T11:22:17;94549.44;;;19.87
42119;BMP280;27783;42.782;23.274;2023-04-25T11:24:42;94547.06;;;19.61
42119;BMP280;27783;42.782;23.274;2023-04-25T11:27:08;94544.69;;;19.26
42119;BMP280;27783;42.782;23.274;2023-04-25T11:29:34;94534.28;;;18.91
42119;BMP280;27783;42.782;23.274;2023-04-25T11:32:00;94532.22;;;19.23
42119;BMP280;27783;42.782;23.274;2023-04-25T11:34:27;94533.09;;;19.29
42119;BMP280;27783;42.782;23.274;2023-04-25T11:36:53;94528.97;;;19.84
42119;BMP280;27783;42.782;23.274;2023-04-25T11:39:19;94518.03;;;20.30
42119;BMP280;27783;42.782;23.274;2023-04-25T11:41:45;94517.28;;;20.63
42119;BMP280;27783;42.782;23.274;2023-04-25T11:44:11;94517.91;;;19.77
42119;BMP280;27783;42.782;23.274;2023-04-25T11:46:37;94515.66;;;19.33
42119;BMP280;27783;42.782;23.274;2023-04-25T11:49:02;94509.91;;;20.24
42119;BMP280;27783;42.782;23.274;2023-04-25T11:51:29;94510.44;;;19.95
42119;BMP280;27783;42.782;23.274;2023-04-25T11:53:55;94505.47;;;20.21
42119;BMP280;27783;42.782;23.274;2023-04-25T11:56:20;94490.03;;;20.64
42119;BMP280;27783;42.782;23.274;2023-04-25T12:01:35;94500.59;;;20.20
42119;BMP280;27783;42.782;23.274;2023-04-25T12:04:11;94500.38;;;19.90
42119;BMP280;27783;42.782;23.274;2023-04-25T12:06:39;94502.59;;;19.91
42119;BMP280;27783;42.782;23.274;2023-04-25T12:09:08;94499.56;;;19.42
42119;BMP280;27783;42.782;23.274;2023-04-25T12:11:54;94506.44;;;19.06
42119;BMP280;27783;42.782;23.274;2023-04-25T12:14:25;94515.94;;;20.05
42119;BMP280;27783;42.782;23.274;2023-04-25T12:16:54;94532.75;;;19.50
42119;BMP280;27783;42.782;23.274;2023-04-25T12:19:21;94564.28;;;16.25
42119;BMP280;27783;42.782;23.274;2023-04-25T12:21:47;94606.44;;;15.01
42119;BMP280;27783;42.782;23.274;2023-04-25T12:24:18;94591.63;;;13.86
42119;BMP280;27783;42.782;23.274;2023-04-25T12:29:21;94570.31;;;14.83
42119;BMP280;27783;42.782;23.274;2023-04-25T12:31:46;94564.38;;;15.33
42119;BMP280;27783;42.782;23.274;2023-04-25T12:34:12;94561.81;;;16.01
42119;BMP280;27783;42.782;23.274;2023-04-25T12:36:38;94567.56;;;16.00
42119;BMP280;27783;42.782;23.274;2023-04-25T12:39:04;94562.22;;;17.11
42119;BMP280;27783;42.782;23.274;2023-04-25T12:41:30;94558.63;;;17.05
42119;BMP280;27783;42.782;23.274;2023-04-25T12:43:56;94554.03;;;17.41
42119;BMP280;27783;42.782;23.274;2023-04-25T12:46:21;94553.47;;;17.02
42119;BMP280;27783;42.782;23.274;2023-04-25T12:48:48;94553.47;;;17.19
42119;BMP280;27783;42.782;23.274;2023-04-25T12:51:13;94553.88;;;16.66
42119;BMP280;27783;42.782;23.274;2023-04-25T12:53:38;94557.19;;;17.04
42119;BMP280;27783;42.782;23.274;2023-04-25T12:56:06;94560.25;;;17.03
42119;BMP280;27783;42.782;23.274;2023-04-25T12:58:32;94558.72;;;16.58
42119;BMP280;27783;42.782;23.274;2023-04-25T13:01:01;94563.50;;;16.89
42119;BMP280;27783;42.782;23.274;2023-04-25T13:03:27;94558.22;;;16.98
42119;BMP280;27783;42.782;23.274;2023-04-25T13:05:52;94570.91;;;17.20
42119;BMP280;27783;42.782;23.274;2023-04-25T13:08:18;94563.03;;;16.73
42119;BMP280;27783;42.782;23.274;2023-04-25T13:10:45;94566.41;;;16.56
42119;BMP280;27783;42.782;23.274;2023-04-25T13:13:10;94571.69;;;16.39
42119;BMP280;27783;42.782;23.274;2023-04-25T13:15:36;94570.63;;;17.01
42119;BMP280;27783;42.782;23.274;2023-04-25T13:18:03;94573.97;;;16.67
42119;BMP280;27783;42.782;23.274;2023-04-25T13:20:29;94579.59;;;16.68
42119;BMP280;27783;42.782;23.274;2023-04-25T13:22:54;94573.66;;;16.56
42119;BMP280;27783;42.782;23.274;2023-04-25T13:25:20;94576.06;;;16.16
42119;BMP280;27783;42.782;23.274;2023-04-25T13:27:46;94584.16;;;15.83
42119;BMP280;27783;42.782;23.274;2023-04-25T13:30:12;94578.97;;;15.79
42119;BMP280;27783;42.782;23.274;2023-04-25T13:32:38;94582.56;;;15.64
42119;BMP280;27783;42.782;23.274;2023-04-25T13:35:08;94582.03;;;15.48
42119;BMP280;27783;42.782;23.274;2023-04-25T13:37:35;94577.03;;;15.50
42119;BMP280;27783;42.782;23.274;2023-04-25T13:40:03;94593.44;;;15.16
42119;BMP280;27783;42.782;23.274;2023-04-25T13:42:32;94582.81;;;14.95
42119;BMP280;27783;42.782;23.274;2023-04-25T13:44:58;94581.91;;;15.10
42119;BMP280;27783;42.782;23.274;2023-04-25T13:47:25;94574.25;;;15.12
42119;BMP280;27783;42.782;23.274;2023-04-25T13:49:51;94578.25;;;15.16
42119;BMP280;27783;42.782;23.274;2023-04-25T13:52:17;94563.69;;;15.41
42119;BMP280;27783;42.782;23.274;2023-04-25T13:54:42;94565.59;;;15.41
42119;BMP280;27783;42.782;23.274;2023-04-25T13:57:08;94569.66;;;15.83
42119;BMP280;27783;42.782;23.274;2023-04-25T13:59:33;94552.81;;;15.99
42119;BMP280;27783;42.782;23.274;2023-04-25T14:02:00;94550.16;;;16.54
42119;BMP280;27783;42.782;23.274;2023-04-25T14:04:25;94551.63;;;16.00
42119;BMP280;27783;42.782;23.274;2023-04-25T14:06:51;94547.63;;;15.95
42119;BMP280;27783;42.782;23.274;2023-04-25T14:09:17;94542.66;;;16.06
42119;BMP280;27783;42.782;23.274;2023-04-25T14:11:46;94532.72;;;16.71
42119;BMP280;27783;42.782;23.274;2023-04-25T14:14:12;94536.41;;;16.73
42119;BMP280;27783;42.782;23.274;2023-04-25T14:16:40;94535.72;;;17.08